Time;durP1;ratioP1;P1;durP2;ratioP2;P2;SDS_P1;SDS_P2;PMS_P1;PMS_P2;Temp;Humidity;BMP_temperature;BMP_pressure;BME280_temperature;BME280_humidity;BME280_pressure;Samples;Min_cycle;Max_cycle;Signal;HPM_P1;HPM_P2
2022/03/21 00:00:43;;;;;;;52.30;16.00;;;;;;;-1.04;50.39;101729.59;103581;1300;24271;-28
2022/03/21 00:03:10;;;;;;;136.10;45.80;;;;;;;-1.07;50.63;101733.72;103523;1302;22812;-26
2022/03/21 00:05:36;;;;;;;30.40;12.60;;;;;;;-1.09;50.75;101733.98;103546;1302;24289;-25
2022/03/21 00:08:02;;;;;;;39.50;17.10;;;;;;;-1.12;50.85;101736.60;103682;1300;24348;-31
2022/03/21 00:10:32;;;;;;;38.50;15.70;;;;;;;-1.14;51.00;101736.86;103638;1301;24308;-25
2022/03/21 00:12:59;;;;;;;50.80;14.90;;;;;;;-1.20;51.53;101732.86;103586;1300;22501;-25
2022/03/21 00:15:25;;;;;;;53.70;15.70;;;;;;;-1.24;51.52;101734.27;103693;1299;24188;-27
2022/03/21 00:17:51;;;;;;;50.90;17.30;;;;;;;-1.24;52.00;101730.05;103591;1300;24282;-27
2022/03/21 00:20:17;;;;;;;38.30;14.00;;;;;;;-1.25;51.81;101731.51;103498;1302;24346;-30
2022/03/21 00:22:43;;;;;;;34.60;14.50;;;;;;;-1.24;51.76;101731.13;103520;1300;24237;-26
2022/03/21 00:25:09;;;;;;;25.90;11.80;;;;;;;-1.24;51.99;101730.73;103688;1300;22496;-30
2022/03/21 00:27:35;;;;;;;29.00;12.90;;;;;;;-1.20;52.01;101730.75;103646;1300;24295;-27
2022/03/21 00:30:01;;;;;;;32.10;13.00;;;;;;;-1.17;52.08;101730.09;103608;1300;24190;-29
2022/03/21 00:32:27;;;;;;;31.50;14.30;;;;;;;-1.19;52.47;101729.11;103646;1300;24295;-25
2022/03/21 00:34:53;;;;;;;36.70;13.40;;;;;;;-1.18;52.34;101725.05;103534;1300;24400;-28
2022/03/21 00:37:19;;;;;;;27.20;12.20;;;;;;;-1.18;52.77;101726.12;103639;1300;24249;-28
2022/03/21 00:39:45;;;;;;;37.60;14.40;;;;;;;-1.18;52.80;101720.81;103538;1302;24302;-31
2022/03/21 00:42:10;;;;;;;36.70;12.70;;;;;;;-1.20;52.84;101722.16;103607;1300;24363;-28
2022/03/21 00:44:37;;;;;;;40.00;13.70;;;;;;;-1.26;52.97;101721.52;103650;1300;24387;-26
2022/03/21 00:47:04;;;;;;;51.70;17.50;;;;;;;-1.31;53.09;101724.70;103685;1300;24223;-28
2022/03/21 00:49:29;;;;;;;36.20;13.70;;;;;;;-1.40;53.74;101722.98;103569;1300;24360;-26
2022/03/21 00:51:55;;;;;;;39.00;13.80;;;;;;;-1.49;54.26;101725.79;103688;1300;24267;-29
2022/03/21 00:54:21;;;;;;;25.90;11.80;;;;;;;-1.58;55.14;101727.92;103574;1300;24444;-25
2022/03/21 00:56:47;;;;;;;32.70;14.00;;;;;;;-1.66;55.32;101728.77;103690;1300;24233;-29
2022/03/21 00:59:12;;;;;;;146.60;33.30;;;;;;;-1.68;55.12;101727.42;103677;1300;22605;-25
2022/03/21 01:01:38;;;;;;;49.40;15.90;;;;;;;-1.64;54.53;101730.09;103588;1300;24217;-30
2022/03/21 01:04:04;;;;;;;52.10;13.40;;;;;;;-1.62;54.25;101729.31;103648;1300;24234;-25
2022/03/21 01:06:29;;;;;;;35.10;13.70;;;;;;;-1.63;54.18;101721.27;103427;1302;24370;-26
2022/03/21 01:08:55;;;;;;;35.20;14.10;;;;;;;-1.65;53.70;101726.95;103640;1300;24312;-28
2022/03/21 01:11:23;;;;;;;43.30;15.00;;;;;;;-1.64;53.60;101718.66;103570;1300;24249;-28
2022/03/21 01:13:49;;;;;;;44.70;15.70;;;;;;;-1.62;53.48;101713.86;103576;1300;24234;-28
2022/03/21 01:16:15;;;;;;;25.20;12.20;;;;;;;-1.61;53.18;101711.34;103686;1300;24977;-25
2022/03/21 01:18:45;;;;;;;37.80;15.90;;;;;;;-1.60;53.09;101709.38;103613;1300;23022;-29
2022/03/21 01:21:11;;;;;;;39.40;16.60;;;;;;;-1.55;52.83;101706.56;103581;1300;22513;-26
2022/03/21 01:23:37;;;;;;;42.50;15.70;;;;;;;-1.57;52.77;101705.41;103589;1300;24216;-30
2022/03/21 01:26:03;;;;;;;79.20;27.80;;;;;;;-1.58;53.19;101709.66;103599;1300;24457;-27
2022/03/21 01:28:29;;;;;;;72.90;26.70;;;;;;;-1.61;53.17;101706.98;103617;1300;24247;-25
2022/03/21 01:30:55;;;;;;;186.30;50.40;;;;;;;-1.60;53.35;101708.86;103632;1300;24295;-26
2022/03/21 01:33:20;;;;;;;363.60;120.60;;;;;;;-1.59;53.46;101709.31;103528;1300;24258;-26
2022/03/21 01:35:46;;;;;;;347.30;121.90;;;;;;;-1.57;54.16;101709.11;103641;1300;24476;-26
2022/03/21 01:38:12;;;;;;;153.40;63.30;;;;;;;-1.59;54.46;101708.98;103408;1302;25875;-29
2022/03/21 01:40:38;;;;;;;75.70;40.70;;;;;;;-1.60;55.16;101706.41;103583;1302;22637;-28
2022/03/21 01:43:10;;;;;;;47.40;25.30;;;;;;;-1.60;55.18;101705.52;103632;1300;24208;-28
2022/03/21 01:45:36;;;;;;;54.80;24.30;;;;;;;-1.61;55.17;101700.29;103693;1300;22759;-25
2022/03/21 01:48:01;;;;;;;47.30;23.10;;;;;;;-1.61;55.20;101699.61;103752;1300;24336;-29
2022/03/21 01:50:27;;;;;;;47.20;19.20;;;;;;;-1.60;55.19;101700.45;103708;1300;24246;-28
2022/03/21 01:55:43;;;;;;;55.30;24.90;;;;;;;-1.61;55.19;101698.55;103607;1300;24298;-29
2022/03/21 01:58:07;;;;;;;42.40;18.70;;;;;;;-1.66;55.60;101694.53;103539;1299;24249;-26
2022/03/21 02:00:33;;;;;;;36.20;14.40;;;;;;;-1.69;55.64;101694.66;103450;1302;24278;-29
2022/03/21 02:02:59;;;;;;;28.60;13.60;;;;;;;-1.74;55.99;101697.66;103574;1300;24249;-29
2022/03/21 02:05:25;;;;;;;42.00;16.20;;;;;;;-1.82;56.19;101696.91;103599;1300;24399;-26
2022/03/21 02:07:52;;;;;;;36.20;16.80;;;;;;;-1.89;56.68;101697.89;103567;1302;24301;-28
2022/03/21 02:10:18;;;;;;;38.50;13.70;;;;;;;-1.98;56.96;101701.38;103619;1300;24297;-28
2022/03/21 02:12:44;;;;;;;61.80;18.20;;;;;;;-2.07;56.97;101698.40;103552;1300;24214;-29
2022/03/21 02:15:10;;;;;;;42.50;15.10;;;;;;;-2.18;57.47;101694.77;103583;1299;24160;-26
2022/03/21 02:17:36;;;;;;;48.80;17.20;;;;;;;-2.26;57.32;101695.30;103689;1299;22631;-26
2022/03/21 02:20:02;;;;;;;42.30;22.30;;;;;;;-2.31;57.62;101693.74;103633;1299;24249;-25
2022/03/21 02:22:33;;;;;;;36.40;14.70;;;;;;;-2.33;57.99;101696.60;103576;1299;24306;-26
2022/03/21 02:25:02;;;;;;;41.30;16.70;;;;;;;-2.36;57.97;101696.52;103549;1302;22635;-26
2022/03/21 02:27:28;;;;;;;43.00;21.30;;;;;;;-2.37;58.25;101696.38;103631;1300;22506;-26
2022/03/21 02:29:54;;;;;;;47.40;24.90;;;;;;;-2.37;59.10;101695.68;103589;1300;24272;-29
2022/03/21 02:32:20;;;;;;;51.70;26.10;;;;;;;-2.35;59.28;101693.88;103561;1300;24201;-26
2022/03/21 02:34:46;;;;;;;77.80;46.00;;;;;;;-2.37;59.26;101694.63;103643;1299;24243;-26
2022/03/21 02:37:15;;;;;;;64.00;36.60;;;;;;;-2.33;59.15;101701.33;103316;1303;22514;-29
2022/03/21 02:39:42;;;;;;;40.10;18.30;;;;;;;-2.30;59.38;101704.05;103558;1300;22648;-29
2022/03/21 02:42:08;;;;;;;53.60;16.30;;;;;;;-2.26;58.90;101699.48;103537;1300;24242;-28
2022/03/21 02:44:35;;;;;;;40.50;17.90;;;;;;;-2.21;58.46;101700.52;103655;1299;24249;-28
2022/03/21 02:47:03;;;;;;;35.80;17.30;;;;;;;-2.14;58.36;101698.52;103629;1300;24337;-28
2022/03/21 02:49:29;;;;;;;33.20;15.60;;;;;;;-2.14;58.08;101698.86;103658;1300;24439;-28
2022/03/21 02:51:55;;;;;;;45.70;22.20;;;;;;;-2.16;58.29;101698.92;103672;1300;24250;-28
2022/03/21 02:54:22;;;;;;;42.40;16.80;;;;;;;-2.17;58.30;101696.15;103491;1300;24212;-28
2022/03/21 02:56:48;;;;;;;42.60;20.60;;;;;;;-2.17;58.14;101697.73;103531;1300;24346;-29
2022/03/21 02:59:16;;;;;;;45.30;16.10;;;;;;;-2.18;58.29;101699.02;103629;1299;24339;-27
2022/03/21 03:01:43;;;;;;;32.40;15.10;;;;;;;-2.23;58.40;101695.52;103676;1299;24204;-25
2022/03/21 03:04:09;;;;;;;31.20;14.80;;;;;;;-2.27;58.46;101702.87;103594;1299;22507;-28
2022/03/21 03:06:35;;;;;;;34.90;14.30;;;;;;;-2.31;58.39;101702.13;103640;1300;24223;-28
2022/03/21 03:09:01;;;;;;;37.70;14.30;;;;;;;-2.35;58.54;101700.88;103652;1299;24250;-29
2022/03/21 03:11:27;;;;;;;44.00;14.40;;;;;;;-2.40;58.58;101702.98;103639;1300;24409;-30
2022/03/21 03:13:52;;;;;;;38.10;12.80;;;;;;;-2.44;58.68;101700.87;103604;1300;24468;-25
2022/03/21 03:16:18;;;;;;;36.30;13.40;;;;;;;-2.47;59.41;101700.98;103617;1299;24208;-25
2022/03/21 03:18:44;;;;;;;41.30;17.00;;;;;;;-2.50;59.81;101696.72;103501;1300;24245;-28
2022/03/21 03:21:10;;;;;;;36.10;13.90;;;;;;;-2.51;59.66;101699.73;103614;1298;24653;-29
2022/03/21 03:23:37;;;;;;;32.80;13.60;;;;;;;-2.54;59.97;101697.90;103701;1299;24208;-26
2022/03/21 03:26:03;;;;;;;39.20;12.90;;;;;;;-2.57;59.67;101697.86;103603;1300;24222;-28
2022/03/21 03:28:29;;;;;;;37.40;15.40;;;;;;;-2.62;59.68;101695.71;103495;1300;24712;-31
2022/03/21 03:30:56;;;;;;;43.90;16.40;;;;;;;-2.64;59.54;101696.18;103615;1299;22826;-28
2022/03/21 03:33:23;;;;;;;34.50;15.20;;;;;;;-2.64;59.51;101696.88;103614;1300;24256;-29
2022/03/21 03:35:48;;;;;;;46.50;19.10;;;;;;;-2.64;59.35;101701.42;103630;1300;24230;-25
2022/03/21 03:38:15;;;;;;;41.90;17.70;;;;;;;-2.60;59.03;101701.29;103618;1300;24305;-27
2022/03/21 03:40:43;;;;;;;40.70;15.90;;;;;;;-2.51;58.56;101701.13;103656;1300;24348;-28
2022/03/21 03:43:10;;;;;;;28.10;13.70;;;;;;;-2.48;58.22;101701.35;103661;1300;24391;-27
2022/03/21 03:45:37;;;;;;;33.10;14.70;;;;;;;-2.44;57.82;101698.58;103501;1300;22517;-30
2022/03/21 03:48:03;;;;;;;44.60;14.70;;;;;;;-2.43;57.62;101701.54;103538;1300;24288;-30
2022/03/21 03:50:29;;;;;;;37.70;14.60;;;;;;;-2.45;57.77;101698.08;103552;1302;24246;-30
2022/03/21 03:52:54;;;;;;;34.30;12.50;;;;;;;-2.50;57.93;101701.98;103519;1302;24228;-29
2022/03/21 03:55:21;;;;;;;37.30;13.90;;;;;;;-2.58;57.99;101699.98;103538;1300;24402;-25
2022/03/21 03:57:47;;;;;;;41.20;14.00;;;;;;;-2.65;57.82;101699.54;103607;1300;24246;-28
2022/03/21 04:00:13;;;;;;;28.00;13.00;;;;;;;-2.70;58.13;101702.69;103559;1300;24378;-28
2022/03/21 04:05:08;;;;;;;27.90;12.10;;;;;;;-2.75;58.49;101697.45;103589;1300;22869;-26
2022/03/21 04:07:34;;;;;;;26.00;10.70;;;;;;;-2.78;58.56;101702.64;103509;1300;24215;-26
2022/03/21 04:10:00;;;;;;;39.40;13.20;;;;;;;-2.81;58.50;101707.83;103562;1300;22848;-27
2022/03/21 04:12:25;;;;;;;31.90;12.20;;;;;;;-2.83;58.40;101710.17;102993;1300;702911;-27
2022/03/21 04:14:52;;;;;;;39.20;13.80;;;;;;;-2.85;58.57;101710.41;103567;1300;24302;-29
2022/03/21 04:17:18;;;;;;;30.80;13.60;;;;;;;-2.88;58.83;101713.16;103579;1300;24240;-25
2022/03/21 04:19:44;;;;;;;45.80;16.10;;;;;;;-2.92;58.73;101712.77;103530;1300;24240;-28
2022/03/21 04:22:11;;;;;;;98.60;22.70;;;;;;;-2.95;58.88;101710.77;103433;1300;24259;-26
2022/03/21 04:24:36;;;;;;;63.10;19.20;;;;;;;-2.98;58.70;101712.45;103561;1301;22512;-27
2022/03/21 04:27:03;;;;;;;38.20;15.50;;;;;;;-3.02;58.58;101714.89;103549;1300;24245;-26
2022/03/21 04:29:29;;;;;;;45.40;14.50;;;;;;;-3.06;59.57;101716.58;103571;1300;24304;-26
2022/03/21 04:31:55;;;;;;;52.90;14.50;;;;;;;-3.07;59.25;101717.13;103389;1302;24313;-27
2022/03/21 04:34:22;;;;;;;45.80;15.90;;;;;;;-3.08;58.71;101721.52;103594;1300;24466;-26
2022/03/21 04:36:48;;;;;;;52.20;16.70;;;;;;;-3.10;58.80;101720.56;103564;1300;24399;-30
2022/03/21 04:39:14;;;;;;;49.40;15.30;;;;;;;-3.12;58.46;101721.35;103587;1300;24215;-25
2022/03/21 04:41:40;;;;;;;53.30;14.80;;;;;;;-3.14;58.82;101724.22;103563;1300;24191;-26
2022/03/21 04:44:05;;;;;;;92.50;22.30;;;;;;;-3.16;58.71;101729.90;103540;1301;24377;-26
2022/03/21 04:46:31;;;;;;;283.40;68.60;;;;;;;-3.18;58.73;101728.73;103646;1300;24211;-26
2022/03/21 04:48:56;;;;;;;135.10;34.90;;;;;;;-3.22;58.94;101732.70;103516;1300;24215;-29
2022/03/21 04:51:22;;;;;;;142.10;38.10;;;;;;;-3.27;59.27;101735.17;103479;1300;22774;-29
2022/03/21 04:53:48;;;;;;;154.50;41.90;;;;;;;-3.32;59.89;101733.93;103587;1303;24400;-25
2022/03/21 04:56:13;;;;;;;52.90;21.20;;;;;;;-3.35;60.40;101737.00;103514;1301;24211;-28
2022/03/21 04:58:39;;;;;;;35.90;13.60;;;;;;;-3.33;60.28;101734.29;103404;1302;24316;-25
2022/03/21 05:01:05;;;;;;;49.80;14.70;;;;;;;-3.24;60.32;101733.14;103552;1300;24246;-30
2022/03/21 05:03:32;;;;;;;37.30;15.20;;;;;;;-3.16;60.29;101731.45;103555;1300;24350;-29
2022/03/21 05:05:58;;;;;;;48.10;18.70;;;;;;;-3.05;60.44;101731.79;103547;1300;24304;-28
2022/03/21 05:08:24;;;;;;;40.70;16.80;;;;;;;-2.92;60.63;101730.83;103545;1300;24329;-25
2022/03/21 05:10:50;;;;;;;37.80;16.60;;;;;;;-2.76;60.08;101730.06;103559;1300;24295;-25
2022/03/21 05:13:16;;;;;;;38.60;17.00;;;;;;;-2.64;59.87;101734.74;103554;1300;24246;-29
2022/03/21 05:15:43;;;;;;;36.80;18.20;;;;;;;-2.57;59.67;101735.04;103546;1300;24350;-27
2022/03/21 05:18:08;;;;;;;49.70;24.00;;;;;;;-2.54;60.02;101736.33;103615;1300;24246;-29
2022/03/21 05:20:34;;;;;;;37.80;17.20;;;;;;;-2.54;60.13;101735.95;103539;1300;24218;-25
2022/03/21 05:37:54;;;;;;;52.60;18.30;;;;;;;-2.14;60.83;101751.88;103493;1302;24249;-26
2022/03/21 05:42:50;;;;;;;34.10;16.40;;;;;;;-2.08;61.32;101758.31;103708;1300;26365;-26
2022/03/21 05:45:19;;;;;;;41.10;16.10;;;;;;;-2.04;61.48;101755.71;103394;1302;24380;-30
2022/03/21 05:50:19;;;;;;;31.60;15.80;;;;;;;-1.89;61.44;101755.84;103623;1300;22595;-30
2022/03/21 05:52:44;;;;;;;34.30;17.40;;;;;;;-1.80;61.52;101758.66;103623;1300;24310;-29
2022/03/21 05:55:10;;;;;;;37.20;17.70;;;;;;;-1.75;61.34;101760.93;103555;1300;24241;-29
2022/03/21 05:57:35;;;;;;;37.90;18.00;;;;;;;-1.71;61.18;101763.20;103580;1300;24189;-29
2022/03/21 06:02:31;;;;;;;36.50;14.50;;;;;;;-1.57;61.47;101769.17;103604;1300;22845;-29
2022/03/21 06:04:57;;;;;;;32.90;15.00;;;;;;;-1.52;61.33;101776.00;103533;1300;24263;-29
2022/03/21 06:07:22;;;;;;;44.70;14.50;;;;;;;-1.46;61.29;101772.21;103505;1300;24459;-29
2022/03/21 06:09:48;;;;;;;46.50;17.30;;;;;;;-1.30;61.46;101765.83;103565;1300;24364;-26
2022/03/21 06:12:14;;;;;;;41.50;16.10;;;;;;;-1.07;61.74;101771.54;103591;1300;24231;-27
2022/03/21 06:14:39;;;;;;;41.50;18.70;;;;;;;-0.82;61.93;101776.27;103588;1300;24237;-29
2022/03/21 06:17:05;;;;;;;32.20;17.10;;;;;;;-0.58;61.79;101771.01;103558;1300;22792;-28
2022/03/21 06:19:31;;;;;;;47.40;19.70;;;;;;;-0.36;61.60;101773.23;103571;1301;24260;-25
2022/03/21 06:21:57;;;;;;;37.10;18.50;;;;;;;-0.12;61.49;101772.70;103510;1300;24245;-25
2022/03/21 06:24:23;;;;;;;47.10;19.50;;;;;;;0.13;60.81;101770.14;103561;1300;24240;-29
2022/03/21 06:26:49;;;;;;;54.50;21.60;;;;;;;0.39;60.46;101770.88;103577;1300;24410;-25
2022/03/21 06:29:14;;;;;;;42.60;18.80;;;;;;;0.66;60.16;101769.55;103672;1300;24255;-25
2022/03/21 06:31:40;;;;;;;34.60;16.10;;;;;;;0.89;59.98;101776.52;103591;1300;24191;-25
2022/03/21 06:34:06;;;;;;;29.80;16.30;;;;;;;1.07;59.24;101775.14;103568;1300;22505;-25
2022/03/21 06:36:32;;;;;;;36.30;17.80;;;;;;;1.28;58.50;101774.52;103529;1303;24272;-30
2022/03/21 06:38:58;;;;;;;45.60;17.20;;;;;;;1.54;58.06;101779.59;103534;1300;24362;-24
2022/03/21 06:41:24;;;;;;;33.50;15.00;;;;;;;1.76;57.74;101782.69;103506;1300;24247;-27
2022/03/21 06:43:49;;;;;;;41.60;18.80;;;;;;;1.91;56.66;101786.10;103562;1301;24374;-25
2022/03/21 06:46:15;;;;;;;39.90;17.10;;;;;;;2.00;55.70;101791.13;103561;1299;24307;-30
2022/03/21 06:48:41;;;;;;;43.20;20.00;;;;;;;2.01;54.58;101791.40;103608;1299;22502;-28
2022/03/21 06:51:07;;;;;;;41.60;18.00;;;;;;;2.03;54.67;101793.75;103583;1300;24295;-30
2022/03/21 06:53:32;;;;;;;45.40;19.60;;;;;;;2.13;54.05;101795.00;103729;1300;24300;-28
2022/03/21 06:55:58;;;;;;;32.30;17.30;;;;;;;2.17;53.48;101799.73;103582;1300;24237;-28
2022/03/21 06:58:24;;;;;;;47.10;18.30;;;;;;;2.25;53.43;101798.36;103580;1300;24259;-28
2022/03/21 07:00:49;;;;;;;47.50;17.70;;;;;;;2.32;53.19;101798.05;103647;1299;24366;-28
2022/03/21 07:03:15;;;;;;;28.20;16.60;;;;;;;2.39;52.42;101797.30;103637;1299;24331;-28
2022/03/21 07:05:41;;;;;;;35.90;17.40;;;;;;;2.44;51.45;101798.24;103597;1299;24212;-30
2022/03/21 07:08:07;;;;;;;39.20;17.20;;;;;;;2.41;51.28;101796.30;103562;1300;24259;-30
2022/03/21 07:10:33;;;;;;;44.90;21.00;;;;;;;2.42;51.23;101799.75;103641;1299;24206;-27
2022/03/21 07:13:01;;;;;;;34.50;16.50;;;;;;;2.49;51.00;101800.41;103557;1300;24195;-24
2022/03/21 07:15:27;;;;;;;46.70;18.30;;;;;;;2.55;50.99;101801.33;103588;1300;24364;-30
2022/03/21 07:17:55;;;;;;;58.60;18.60;;;;;;;2.77;49.91;101799.05;103652;1300;24170;-30
2022/03/21 07:20:20;;;;;;;35.00;14.70;;;;;;;2.98;49.23;101792.35;103527;1300;26200;-24
2022/03/21 07:22:46;;;;;;;37.10;17.00;;;;;;;3.24;48.19;101795.05;103629;1299;24358;-29
2022/03/21 07:25:12;;;;;;;43.50;20.80;;;;;;;3.51;47.67;101793.80;103638;1299;22722;-29
2022/03/21 07:27:37;;;;;;;37.00;17.10;;;;;;;3.82;47.94;101794.73;103586;1299;24410;-25
2022/03/21 07:30:05;;;;;;;40.80;20.10;;;;;;;4.12;47.06;101794.52;103702;1299;24298;-23
2022/03/21 07:32:31;;;;;;;39.20;16.50;;;;;;;4.41;46.76;101797.10;103621;1300;22592;-29
2022/03/21 07:34:58;;;;;;;37.80;17.00;;;;;;;4.65;46.27;101800.34;103569;1300;24368;-28
2022/03/21 07:37:24;;;;;;;32.20;18.40;;;;;;;4.91;45.71;101800.77;103736;1299;24281;-24
2022/03/21 07:39:50;;;;;;;36.80;18.20;;;;;;;5.14;45.54;101801.02;103657;1300;24458;-24
2022/03/21 07:42:16;;;;;;;37.00;18.20;;;;;;;5.38;44.53;101799.23;103641;1299;24255;-30
2022/03/21 07:49:42;;;;;;;31.80;15.70;;;;;;;6.30;43.30;101789.61;103492;1303;24428;-25
2022/03/21 07:52:07;;;;;;;38.40;16.20;;;;;;;6.47;42.30;101791.60;103692;1299;22503;-28
2022/03/21 07:54:33;;;;;;;40.70;17.40;;;;;;;6.66;42.48;101788.23;103599;1300;24174;-24
2022/03/21 07:56:59;;;;;;;30.40;16.60;;;;;;;6.90;40.67;101781.70;103670;1299;24240;-28
2022/03/21 07:59:25;;;;;;;36.90;15.60;;;;;;;7.11;39.94;101780.46;103485;1302;24241;-25
2022/03/21 08:01:50;;;;;;;30.70;15.50;;;;;;;7.31;39.41;101784.69;103696;1299;24191;-28
2022/03/21 08:04:17;;;;;;;32.20;18.00;;;;;;;7.50;39.47;101781.95;103643;1299;24954;-25
2022/03/21 08:06:43;;;;;;;28.00;16.50;;;;;;;7.83;39.52;101780.42;103704;1300;24311;-25
2022/03/21 08:09:09;;;;;;;30.60;16.40;;;;;;;8.06;38.77;101783.11;103538;1300;24406;-25
2022/03/21 08:11:35;;;;;;;29.20;16.30;;;;;;;8.26;37.98;101782.95;103547;1300;24562;-28
2022/03/21 08:14:01;;;;;;;21.10;12.90;;;;;;;8.49;37.63;101782.90;103693;1299;24269;-28
2022/03/21 08:16:26;;;;;;;28.00;14.90;;;;;;;8.73;37.51;101780.08;103629;1299;24252;-28
2022/03/21 08:18:52;;;;;;;33.50;16.40;;;;;;;8.96;36.79;101775.33;103629;1300;24160;-25
2022/03/21 08:21:19;;;;;;;32.00;15.70;;;;;;;9.19;36.68;101774.95;103560;1302;24295;-27
2022/03/21 08:23:47;;;;;;;28.70;16.70;;;;;;;9.36;35.86;101777.79;103544;1302;25344;-28
2022/03/21 08:26:13;;;;;;;24.70;15.30;;;;;;;9.63;36.08;101776.41;103521;1302;22652;-28
2022/03/21 08:28:38;;;;;;;31.70;15.80;;;;;;;9.81;34.61;101774.66;103749;1299;25117;-28
2022/03/21 08:31:04;;;;;;;35.10;17.10;;;;;;;10.05;34.49;101776.27;103688;1299;24170;-25
2022/03/21 08:33:31;;;;;;;35.50;15.60;;;;;;;10.17;33.33;101776.84;103571;1300;24211;-29
2022/03/21 08:35:56;;;;;;;29.10;16.50;;;;;;;10.14;33.67;101775.00;103635;1300;24364;-30
2022/03/21 08:38:22;;;;;;;27.80;16.90;;;;;;;10.31;32.89;101771.92;103541;1302;22511;-28
2022/03/21 08:40:48;;;;;;;24.00;15.40;;;;;;;10.36;32.42;101770.71;103555;1300;24183;-28
2022/03/21 08:43:14;;;;;;;23.50;14.90;;;;;;;10.37;32.15;101768.19;103458;1302;24364;-25
2022/03/21 08:45:41;;;;;;;27.50;14.40;;;;;;;10.41;31.17;101763.33;103491;1300;24289;-28
2022/03/21 08:48:07;;;;;;;25.10;14.40;;;;;;;10.38;31.33;101765.35;103707;1299;24284;-28
2022/03/21 08:50:34;;;;;;;23.20;14.60;;;;;;;10.51;31.68;101762.19;103661;1300;24315;-25
2022/03/21 08:53:00;;;;;;;29.20;15.00;;;;;;;10.80;31.40;101755.61;103477;1302;24301;-24
2022/03/21 08:55:26;;;;;;;28.50;15.40;;;;;;;10.93;30.43;101752.67;103640;1300;24361;-28
2022/03/21 08:57:52;;;;;;;28.10;14.70;;;;;;;10.79;30.63;101751.42;103690;1299;22497;-24
2022/03/21 09:00:18;;;;;;;22.00;15.60;;;;;;;11.02;30.47;101749.29;103685;1300;24202;-29
2022/03/21 09:02:46;;;;;;;21.10;14.30;;;;;;;11.15;30.67;101748.83;103595;1300;24353;-24
2022/03/21 09:05:14;;;;;;;21.40;12.90;;;;;;;11.28;30.07;101747.82;103794;1300;22569;-27
2022/03/21 09:07:40;;;;;;;21.20;13.10;;;;;;;11.41;30.11;101747.27;103615;1300;24306;-25
2022/03/21 09:10:07;;;;;;;20.50;13.40;;;;;;;11.52;29.58;101748.41;103561;1302;22753;-29
2022/03/21 09:12:33;;;;;;;23.70;12.50;;;;;;;11.58;29.35;101743.15;103659;1300;24170;-25
2022/03/21 09:14:59;;;;;;;22.10;14.10;;;;;;;11.64;28.04;101740.23;103610;1300;25370;-25
2022/03/21 09:17:26;;;;;;;22.70;15.00;;;;;;;11.55;28.87;101739.48;103825;1300;24364;-26
2022/03/21 09:19:52;;;;;;;26.20;13.10;;;;;;;11.68;28.27;101738.88;103653;1300;23971;-29
2022/03/21 09:22:18;;;;;;;20.10;13.10;;;;;;;11.68;29.01;101736.12;103563;1300;24367;-26
2022/03/21 09:24:45;;;;;;;17.00;11.30;;;;;;;11.81;28.55;101732.77;103654;1300;24419;-28
2022/03/21 09:27:11;;;;;;;20.20;12.70;;;;;;;11.89;28.76;101732.73;103628;1300;24317;-28
2022/03/21 09:29:37;;;;;;;23.50;13.50;;;;;;;12.14;29.14;101734.06;103599;1300;24312;-28
2022/03/21 09:32:03;;;;;;;13.80;10.50;;;;;;;12.61;28.56;101734.30;103709;1300;24230;-28
2022/03/21 09:34:32;;;;;;;18.50;10.90;;;;;;;12.96;27.32;101727.33;103662;1300;24271;-22
2022/03/21 09:36:58;;;;;;;15.60;10.10;;;;;;;13.31;25.92;101724.32;103544;1302;24225;-24
2022/03/21 09:39:24;;;;;;;14.50;9.90;;;;;;;13.28;25.05;101727.13;103578;1300;24364;-25
2022/03/21 09:41:50;;;;;;;13.20;9.30;;;;;;;13.39;25.05;101729.44;103642;1300;22517;-28
2022/03/21 09:44:16;;;;;;;14.40;9.60;;;;;;;13.52;24.48;101724.89;103494;1300;24281;-28
2022/03/21 09:46:44;;;;;;;11.60;8.50;;;;;;;13.69;24.13;101728.73;103688;1300;24371;-28
2022/03/21 09:49:10;;;;;;;21.90;8.70;;;;;;;13.77;24.80;101731.95;103531;1300;24362;-25
2022/03/21 09:51:37;;;;;;;17.20;8.50;;;;;;;14.10;24.97;101726.20;103693;1300;24445;-28
2022/03/21 09:54:03;;;;;;;10.10;8.10;;;;;;;14.49;24.71;101720.05;103517;1300;24212;-25
2022/03/21 09:56:29;;;;;;;16.50;8.80;;;;;;;14.48;23.87;101717.09;103632;1300;24268;-28
2022/03/21 10:01:25;;;;;;;24.90;10.70;;;;;;;14.59;23.44;101713.54;103493;1300;22499;-28
2022/03/21 10:03:51;;;;;;;17.90;8.80;;;;;;;14.75;23.36;101707.69;103650;1300;24255;-28
2022/03/21 10:06:23;;;;;;;11.40;7.70;;;;;;;14.88;23.89;101707.91;103623;1300;22509;-25
2022/03/21 10:08:49;;;;;;;14.70;10.00;;;;;;;15.24;23.58;101709.71;103664;1299;25342;-24
2022/03/21 10:11:16;;;;;;;50.70;11.90;;;;;;;15.52;22.96;101705.98;103635;1299;23985;-27
2022/03/21 10:13:43;;;;;;;11.00;8.50;;;;;;;15.24;22.38;101706.81;103710;1300;24402;-23
2022/03/21 10:16:11;;;;;;;17.60;9.60;;;;;;;15.57;22.69;101702.02;103709;1300;24253;-27
2022/03/21 10:18:38;;;;;;;23.10;8.60;;;;;;;15.66;22.25;101700.15;103601;1300;24257;-28
2022/03/21 10:21:08;;;;;;;10.10;7.70;;;;;;;15.86;21.75;101695.02;103646;1301;24206;-30
2022/03/21 10:23:34;;;;;;;9.60;8.50;;;;;;;15.83;21.10;101691.69;103570;1300;24413;-25
2022/03/21 10:26:00;;;;;;;11.30;8.00;;;;;;;15.71;21.45;101691.64;103547;1301;24217;-25
2022/03/21 10:28:32;;;;;;;10.50;7.50;;;;;;;15.94;20.82;101686.41;103697;1300;24371;-24
2022/03/21 10:30:57;;;;;;;13.30;8.80;;;;;;;15.78;21.49;101686.98;103533;1302;24193;-28
2022/03/21 10:33:23;;;;;;;16.30;10.10;;;;;;;15.90;21.24;101684.94;103449;1302;24262;-28
2022/03/21 10:35:49;;;;;;;15.20;8.40;;;;;;;16.01;20.89;101681.16;103638;1299;24486;-24
2022/03/21 10:38:28;;;;;;;11.60;8.30;;;;;;;16.16;20.90;101680.55;103576;1302;24214;-24
2022/03/21 10:40:55;;;;;;;29.50;9.40;;;;;;;16.29;20.74;101678.95;103578;1300;22969;-28
2022/03/21 10:43:21;;;;;;;14.60;8.90;;;;;;;16.41;20.37;101680.10;103504;1302;24360;-28
2022/03/21 10:45:49;;;;;;;15.50;8.20;;;;;;;16.38;20.15;101676.63;103652;1299;24276;-28
2022/03/21 10:48:16;;;;;;;15.50;8.00;;;;;;;16.70;20.55;101672.52;103791;1300;25239;-24
2022/03/21 10:50:46;;;;;;;10.00;8.20;;;;;;;16.74;20.08;101669.74;103723;1299;24386;-24
2022/03/21 10:53:13;;;;;;;26.60;11.60;;;;;;;17.16;20.19;101668.30;103671;1299;22518;-25
2022/03/21 10:55:41;;;;;;;10.20;9.10;;;;;;;17.27;19.94;101667.17;103669;1300;24317;-28
2022/03/21 10:58:07;;;;;;;11.30;8.40;;;;;;;17.23;19.55;101663.36;103659;1302;24294;-29
2022/03/21 11:00:33;;;;;;;9.60;7.40;;;;;;;16.89;19.46;101665.60;103747;1300;24295;-24
2022/03/21 11:03:05;;;;;;;31.20;8.40;;;;;;;16.47;19.47;101667.83;103610;1301;24244;-24
2022/03/21 11:05:34;;;;;;;13.90;8.70;;;;;;;16.71;19.73;101667.26;103723;1299;24298;-24
2022/03/21 11:08:00;;;;;;;15.00;8.60;;;;;;;16.72;18.80;101668.58;103603;1300;24248;-24
2022/03/21 11:10:26;;;;;;;10.50;6.10;;;;;;;16.87;19.26;101664.30;103448;1300;24423;-28
2022/03/21 11:12:54;;;;;;;10.90;7.70;;;;;;;17.04;19.08;101660.18;103608;1301;24305;-24
2022/03/21 11:15:20;;;;;;;10.90;7.70;;;;;;;17.11;18.92;101649.73;103581;1302;24298;-30
2022/03/21 11:17:46;;;;;;;17.10;8.60;;;;;;;17.06;18.43;101652.73;103519;1300;24210;-29
2022/03/21 11:20:13;;;;;;;23.50;7.70;;;;;;;16.89;18.67;101648.52;103524;1302;24234;-25
2022/03/21 11:22:40;;;;;;;9.70;7.70;;;;;;;16.85;18.89;101648.01;103612;1300;24215;-29
2022/03/21 11:25:06;;;;;;;10.00;7.50;;;;;;;16.89;18.97;101642.98;103643;1299;25371;-28
2022/03/21 11:27:45;;;;;;;12.60;7.70;;;;;;;16.91;18.92;101643.33;103694;1300;24317;-28
2022/03/21 11:30:13;;;;;;;11.30;7.40;;;;;;;16.87;19.10;101636.96;103672;1300;22647;-24
2022/03/21 11:32:46;;;;;;;10.20;7.10;;;;;;;16.51;18.81;101639.69;103660;1301;24215;-25
2022/03/21 11:35:14;;;;;;;10.40;7.90;;;;;;;16.45;18.79;101634.75;103619;1302;23874;-26